sensor_id;sensor_type;location;lat;lon;timestamp;pressure;altitude;pressure_sealevel;temperature;humidity
22775;BME280;11554;51.106;3.684;2023-01-24T00:00:00;103784.75000000001;;;1.99;100.0
22775;BME280;11554;51.106;3.684;2023-01-24T00:05:00;103778.53;;;1.99;100.0
22775;BME280;11554;51.106;3.684;2023-01-24T00:10:00;103782.13;;;1.98;100.0
22775;BME280;11554;51.106;3.684;2023-01-24T00:15:00;103781.01;;;1.99;100.0
22775;BME280;11554;51.106;3.684;2023-01-24T00:20:00;103783.22;;;2.00;100.0
22775;BME280;11554;51.106;3.684;2023-01-24T00:25:00;103775.45999999999;;;2.00;100.0
22775;BME280;11554;51.106;3.684;2023-01-24T00:30:00;103781.8;;;1.97;100.0
22775;BME280;11554;51.106;3.684;2023-01-24T00:35:00;103779.48;;;1.96;100.0
22775;BME280;11554;51.106;3.684;2023-01-24T00:40:00;103780.40000000001;;;1.94;100.0
22775;BME280;11554;51.106;3.684;2023-01-24T00:45:00;103774.84999999999;;;1.94;100.0
22775;BME280;11554;51.106;3.684;2023-01-24T00:50:00;103763.23999999999;;;1.93;100.0
22775;BME280;11554;51.106;3.684;2023-01-24T00:55:00;103759.59;;;1.91;100.0
22775;BME280;11554;51.106;3.684;2023-01-24T01:00:00;103753.56;;;1.88;100.0
22775;BME280;11554;51.106;3.684;2023-01-24T01:05:00;103750.89;;;1.89;100.0
22775;BME280;11554;51.106;3.684;2023-01-24T01:10:00;103753.56;;;1.89;100.0
22775;BME280;11554;51.106;3.684;2023-01-24T01:15:00;103749.27;;;1.88;100.0
22775;BME280;11554;51.106;3.684;2023-01-24T01:20:00;103746.47;;;1.87;100.0
22775;BME280;11554;51.106;3.684;2023-01-24T01:25:00;103741.09000000001;;;1.85;100.0
22775;BME280;11554;51.106;3.684;2023-01-24T01:30:00;103732.34;;;1.84;100.0
22775;BME280;11554;51.106;3.684;2023-01-24T01:35:00;103735.96;;;1.80;100.0
22775;BME280;11554;51.106;3.684;2023-01-24T01:40:00;103731.48000000001;;;1.78;100.0
22775;BME280;11554;51.106;3.684;2023-01-24T01:50:02;103725.94999999998;;;1.77;100.0
22775;BME280;11554;51.106;3.684;2023-01-24T01:55:01;103723.71;;;1.76;100.0
22775;BME280;11554;51.106;3.684;2023-01-24T02:00:01;103730.73;;;1.74;100.0
22775;BME280;11554;51.106;3.684;2023-01-24T02:10:00;103719.76;;;1.72;100.0
22775;BME280;11554;51.106;3.684;2023-01-24T02:15:02;103725.51000000001;;;1.71;100.0
22775;BME280;11554;51.106;3.684;2023-01-24T02:20:03;103722.55;;;1.69;100.0
22775;BME280;11554;51.106;3.684;2023-01-24T02:25:03;103722.90000000001;;;1.68;100.0
22775;BME280;11554;51.106;3.684;2023-01-24T02:30:00;103722.27;;;1.68;100.0
22775;BME280;11554;51.106;3.684;2023-01-24T02:35:00;103725.54000000001;;;1.66;100.0
22775;BME280;11554;51.106;3.684;2023-01-24T02:40:01;103720.91;;;1.66;100.0
22775;BME280;11554;51.106;3.684;2023-01-24T02:45:02;103721.63;;;1.66;100.0
22775;BME280;11554;51.106;3.684;2023-01-24T02:50:01;103723.6;;;1.65;100.0
22775;BME280;11554;51.106;3.684;2023-01-24T02:55:00;103729.33;;;1.64;100.0
22775;BME280;11554;51.106;3.684;2023-01-24T03:00:00;103725.45999999999;;;1.62;100.0
22775;BME280;11554;51.106;3.684;2023-01-24T03:05:00;103719.29000000001;;;1.61;100.0
22775;BME280;11554;51.106;3.684;2023-01-24T03:10:00;103721.39;;;1.61;100.0
22775;BME280;11554;51.106;3.684;2023-01-24T03:15:00;103724.55;;;1.60;100.0
22775;BME280;11554;51.106;3.684;2023-01-24T03:20:00;103721.04;;;1.59;100.0
22775;BME280;11554;51.106;3.684;2023-01-24T03:25:00;103721.12999999999;;;1.55;100.0
22775;BME280;11554;51.106;3.684;2023-01-24T03:30:00;103715.66;;;1.55;100.0
22775;BME280;11554;51.106;3.684;2023-01-24T03:35:00;103718.65000000001;;;1.53;100.0
22775;BME280;11554;51.106;3.684;2023-01-24T03:40:00;103718.54000000001;;;1.53;100.0
22775;BME280;11554;51.106;3.684;2023-01-24T03:45:00;103716.60999999999;;;1.51;100.0
22775;BME280;11554;51.106;3.684;2023-01-24T03:50:00;103720.56;;;1.50;100.0
22775;BME280;11554;51.106;3.684;2023-01-24T03:55:00;103717.68;;;1.48;100.0
22775;BME280;11554;51.106;3.684;2023-01-24T04:00:00;103705.52;;;1.47;100.0
22775;BME280;11554;51.106;3.684;2023-01-24T04:05:00;103714.11;;;1.46;100.0
22775;BME280;11554;51.106;3.684;2023-01-24T04:10:00;103714.7;;;1.47;100.0
22775;BME280;11554;51.106;3.684;2023-01-24T04:15:00;103713.83;;;1.43;100.0
22775;BME280;11554;51.106;3.684;2023-01-24T04:20:00;103720.20999999999;;;1.42;100.0
22775;BME280;11554;51.106;3.684;2023-01-24T04:25:00;103716.39;;;1.41;100.0
22775;BME280;11554;51.106;3.684;2023-01-24T04:30:00;103708.98;;;1.40;100.0
22775;BME280;11554;51.106;3.684;2023-01-24T04:35:00;103711.87999999999;;;1.40;100.0
22775;BME280;11554;51.106;3.684;2023-01-24T04:40:00;103710.05;;;1.40;100.0
22775;BME280;11554;51.106;3.684;2023-01-24T04:45:00;103707.46999999999;;;1.40;100.0
22775;BME280;11554;51.106;3.684;2023-01-24T04:50:00;103709.07999999999;;;1.38;100.0
22775;BME280;11554;51.106;3.684;2023-01-24T04:55:00;103709.29000000001;;;1.37;100.0
22775;BME280;11554;51.106;3.684;2023-01-24T05:00:00;103714.87;;;1.36;100.0
22775;BME280;11554;51.106;3.684;2023-01-24T05:05:00;103723.12;;;1.35;100.0
22775;BME280;11554;51.106;3.684;2023-01-24T05:10:00;103718.4;;;1.34;100.0
22775;BME280;11554;51.106;3.684;2023-01-24T05:15:00;103718.23999999999;;;1.34;100.0
22775;BME280;11554;51.106;3.684;2023-01-24T05:20:00;103725.45999999999;;;1.33;100.0
22775;BME280;11554;51.106;3.684;2023-01-24T05:25:00;103716.7;;;1.31;100.0
22775;BME280;11554;51.106;3.684;2023-01-24T05:30:00;103719.81000000001;;;1.30;100.0
22775;BME280;11554;51.106;3.684;2023-01-24T05:35:00;103726.9;;;1.30;100.0
22775;BME280;11554;51.106;3.684;2023-01-24T05:40:00;103733.5;;;1.29;100.0
22775;BME280;11554;51.106;3.684;2023-01-24T05:45:00;103736.40000000001;;;1.29;100.0
22775;BME280;11554;51.106;3.684;2023-01-24T05:50:00;103746.09;;;1.28;100.0
22775;BME280;11554;51.106;3.684;2023-01-24T05:55:00;103748.08;;;1.29;100.0
22775;BME280;11554;51.106;3.684;2023-01-24T06:00:00;103753.97;;;1.27;100.0
22775;BME280;11554;51.106;3.684;2023-01-24T06:05:00;103757.41;;;1.26;100.0
22775;BME280;11554;51.106;3.684;2023-01-24T06:10:00;103758.02;;;1.27;100.0
22775;BME280;11554;51.106;3.684;2023-01-24T06:15:00;103758.97;;;1.26;100.0
22775;BME280;11554;51.106;3.684;2023-01-24T06:20:00;103761.89;;;1.24;100.0
22775;BME280;11554;51.106;3.684;2023-01-24T06:25:00;103765.72000000002;;;1.23;100.0
22775;BME280;11554;51.106;3.684;2023-01-24T06:30:00;103766.76;;;1.22;100.0
22775;BME280;11554;51.106;3.684;2023-01-24T06:35:06;103772.56;;;1.21;100.0
22775;BME280;11554;51.106;3.684;2023-01-24T06:40:00;103782.09;;;1.20;100.0
22775;BME280;11554;51.106;3.684;2023-01-24T06:45:00;103783.82999999999;;;1.20;100.0
22775;BME280;11554;51.106;3.684;2023-01-24T06:50:00;103784.94;;;1.19;100.0
22775;BME280;11554;51.106;3.684;2023-01-24T06:55:00;103785.21;;;1.20;100.0
22775;BME280;11554;51.106;3.684;2023-01-24T07:00:00;103781.87000000001;;;1.18;100.0
22775;BME280;11554;51.106;3.684;2023-01-24T07:05:00;103784.02;;;1.18;100.0
22775;BME280;11554;51.106;3.684;2023-01-24T07:10:00;103786.1;;;1.17;100.0
22775;BME280;11554;51.106;3.684;2023-01-24T07:15:00;103789.11;;;1.17;100.0
22775;BME280;11554;51.106;3.684;2023-01-24T07:20:00;103804.22000000002;;;1.16;100.0
22775;BME280;11554;51.106;3.684;2023-01-24T07:25:00;103803.59000000001;;;1.17;100.0
22775;BME280;11554;51.106;3.684;2023-01-24T07:30:00;103811.65000000001;;;1.17;100.0
22775;BME280;11554;51.106;3.684;2023-01-24T07:35:00;103809.01;;;1.17;100.0
22775;BME280;11554;51.106;3.684;2023-01-24T07:40:00;103814.28000000001;;;1.18;100.0
22775;BME280;11554;51.106;3.684;2023-01-24T07:45:00;103815.62;;;1.17;100.0
22775;BME280;11554;51.106;3.684;2023-01-24T07:50:00;103822.61000000002;;;1.18;100.0
22775;BME280;11554;51.106;3.684;2023-01-24T07:55:00;103814.39;;;1.19;100.0
22775;BME280;11554;51.106;3.684;2023-01-24T08:00:00;103815.38;;;1.20;100.0
22775;BME280;11554;51.106;3.684;2023-01-24T08:05:00;103818.98000000001;;;1.22;100.0
22775;BME280;11554;51.106;3.684;2023-01-24T08:10:00;103817.81000000001;;;1.24;100.0
22775;BME280;11554;51.106;3.684;2023-01-24T08:15:00;103825.78000000001;;;1.27;100.0
22775;BME280;11554;51.106;3.684;2023-01-24T08:20:00;103832.43;;;1.26;100.0
22775;BME280;11554;51.106;3.684;2023-01-24T08:25:00;103841.27;;;1.25;100.0
22775;BME280;11554;51.106;3.684;2023-01-24T08:30:00;103843.98000000001;;;1.22;100.0
22775;BME280;11554;51.106;3.684;2023-01-24T08:35:00;103848.4;;;1.24;100.0
22775;BME280;11554;51.106;3.684;2023-01-24T08:40:00;103853.34;;;1.24;100.0
22775;BME280;11554;51.106;3.684;2023-01-24T08:45:00;103865.5;;;1.23;100.0
22775;BME280;11554;51.106;3.684;2023-01-24T08:50:00;103860.51;;;1.29;100.0
22775;BME280;11554;51.106;3.684;2023-01-24T08:55:00;103864.72000000002;;;1.30;100.0
22775;BME280;11554;51.106;3.684;2023-01-24T09:00:00;103864.16999999998;;;1.36;100.0
22775;BME280;11554;51.106;3.684;2023-01-24T09:05:00;103870.0;;;1.40;100.0
22775;BME280;11554;51.106;3.684;2023-01-24T09:10:00;103872.12;;;1.38;100.0
22775;BME280;11554;51.106;3.684;2023-01-24T09:15:00;103880.8;;;1.35;100.0
22775;BME280;11554;51.106;3.684;2023-01-24T09:20:00;103881.85;;;1.32;100.0
22775;BME280;11554;51.106;3.684;2023-01-24T09:25:00;103872.73;;;1.34;100.0
22775;BME280;11554;51.106;3.684;2023-01-24T09:30:00;103879.38999999998;;;1.38;100.0
22775;BME280;11554;51.106;3.684;2023-01-24T09:35:00;103875.43000000001;;;1.47;100.0
22775;BME280;11554;51.106;3.684;2023-01-24T09:40:00;103875.84999999999;;;1.56;100.0
22775;BME280;11554;51.106;3.684;2023-01-24T09:45:03;103879.58000000002;;;1.57;100.0
22775;BME280;11554;51.106;3.684;2023-01-24T09:50:01;103884.40000000001;;;1.56;100.0
22775;BME280;11554;51.106;3.684;2023-01-24T09:55:02;103884.06;;;1.60;100.0
22775;BME280;11554;51.106;3.684;2023-01-24T10:00:03;103882.76000000001;;;1.50;100.0
22775;BME280;11554;51.106;3.684;2023-01-24T10:05:00;103887.34999999999;;;1.55;100.0
22775;BME280;11554;51.106;3.684;2023-01-24T10:10:03;103889.29000000001;;;1.58;100.0
22775;BME280;11554;51.106;3.684;2023-01-24T10:15:04;103891.56;;;1.59;100.0
22775;BME280;11554;51.106;3.684;2023-01-24T10:25:02;103894.68999999999;;;1.68;100.0
22775;BME280;11554;51.106;3.684;2023-01-24T10:30:02;103896.17000000001;;;1.70;100.0
22775;BME280;11554;51.106;3.684;2023-01-24T10:35:01;103895.23999999999;;;1.75;100.0
22775;BME280;11554;51.106;3.684;2023-01-24T10:40:00;103897.81;;;1.82;100.0
22775;BME280;11554;51.106;3.684;2023-01-24T10:45:03;103898.45;;;1.76;100.0
22775;BME280;11554;51.106;3.684;2023-01-24T10:50:01;103895.03;;;1.70;100.0
22775;BME280;11554;51.106;3.684;2023-01-24T10:55:01;103889.14;;;1.74;100.0
22775;BME280;11554;51.106;3.684;2023-01-24T11:00:02;103890.09000000001;;;1.76;100.0
22775;BME280;11554;51.106;3.684;2023-01-24T11:05:01;103887.56000000001;;;1.77;100.0
22775;BME280;11554;51.106;3.684;2023-01-24T11:10:01;103886.66;;;1.79;100.0
22775;BME280;11554;51.106;3.684;2023-01-24T11:15:00;103881.07;;;1.87;100.0
22775;BME280;11554;51.106;3.684;2023-01-24T11:20:01;103873.90000000001;;;1.82;100.0
22775;BME280;11554;51.106;3.684;2023-01-24T11:25:02;103874.08;;;1.86;100.0
22775;BME280;11554;51.106;3.684;2023-01-24T11:30:05;103873.03;;;1.82;100.0
22775;BME280;11554;51.106;3.684;2023-01-24T11:35:01;103863.11;;;1.84;100.0
22775;BME280;11554;51.106;3.684;2023-01-24T11:40:02;103862.59999999999;;;1.80;100.0
22775;BME280;11554;51.106;3.684;2023-01-24T11:45:03;103860.69;;;1.84;100.0
22775;BME280;11554;51.106;3.684;2023-01-24T11:50:09;103864.05;;;1.87;100.0
22775;BME280;11554;51.106;3.684;2023-01-24T11:55:01;103856.14;;;1.92;100.0
22775;BME280;11554;51.106;3.684;2023-01-24T12:00:04;103850.07;;;1.87;100.0
22775;BME280;11554;51.106;3.684;2023-01-24T12:10:02;103838.05;;;1.97;100.0
22775;BME280;11554;51.106;3.684;2023-01-24T12:15:04;103829.37;;;1.93;100.0
22775;BME280;11554;51.106;3.684;2023-01-24T12:20:04;103824.26000000001;;;1.98;100.0
22775;BME280;11554;51.106;3.684;2023-01-24T12:25:02;103822.23;;;2.03;100.0
22775;BME280;11554;51.106;3.684;2023-01-24T12:30:01;103815.41;;;2.02;100.0
22775;BME280;11554;51.106;3.684;2023-01-24T12:35:02;103810.14;;;2.03;100.0
22775;BME280;11554;51.106;3.684;2023-01-24T12:40:02;103801.56999999999;;;1.98;100.0
22775;BME280;11554;51.106;3.684;2023-01-24T12:45:02;103795.8;;;1.93;100.0
22775;BME280;11554;51.106;3.684;2023-01-24T12:50:04;103787.23;;;1.97;100.0
22775;BME280;11554;51.106;3.684;2023-01-24T12:55:01;103783.61;;;2.05;100.0
22775;BME280;11554;51.106;3.684;2023-01-24T13:00:00;103786.15999999999;;;2.11;100.0
22775;BME280;11554;51.106;3.684;2023-01-24T13:05:04;103773.29;;;2.04;100.0
22775;BME280;11554;51.106;3.684;2023-01-24T13:10:02;103770.17000000001;;;2.07;100.0
22775;BME280;11554;51.106;3.684;2023-01-24T13:15:01;103775.27;;;2.02;100.0
22775;BME280;11554;51.106;3.684;2023-01-24T13:20:03;103776.42000000001;;;1.94;100.0
22775;BME280;11554;51.106;3.684;2023-01-24T13:25:03;103771.75;;;1.87;100.0
22775;BME280;11554;51.106;3.684;2023-01-24T13:30:04;103770.59;;;1.99;100.0
22775;BME280;11554;51.106;3.684;2023-01-24T13:35:00;103771.49999999999;;;1.88;100.0
22775;BME280;11554;51.106;3.684;2023-01-24T13:40:01;103768.59;;;1.85;100.0
22775;BME280;11554;51.106;3.684;2023-01-24T13:50:09;103771.53000000001;;;1.84;100.0
22775;BME280;11554;51.106;3.684;2023-01-24T13:55:01;103767.90000000001;;;1.87;100.0
22775;BME280;11554;51.106;3.684;2023-01-24T14:00:03;103765.64000000001;;;1.87;100.0
22775;BME280;11554;51.106;3.684;2023-01-24T14:05:00;103761.34;;;1.84;100.0
22775;BME280;11554;51.106;3.684;2023-01-24T14:10:01;103765.73000000001;;;1.82;100.0
22775;BME280;11554;51.106;3.684;2023-01-24T14:15:02;103770.13999999998;;;1.83;100.0
22775;BME280;11554;51.106;3.684;2023-01-24T14:20:00;103772.72;;;1.82;100.0
22775;BME280;11554;51.106;3.684;2023-01-24T14:25:01;103770.72;;;1.78;100.0
22775;BME280;11554;51.106;3.684;2023-01-24T14:30:09;103772.49999999999;;;1.74;100.0
22775;BME280;11554;51.106;3.684;2023-01-24T14:35:02;103761.78;;;1.76;100.0
22775;BME280;11554;51.106;3.684;2023-01-24T14:45:00;103770.17000000001;;;1.69;100.0
22775;BME280;11554;51.106;3.684;2023-01-24T14:50:00;103772.56;;;1.65;100.0
22775;BME280;11554;51.106;3.684;2023-01-24T14:55:01;103766.55;;;1.63;100.0
22775;BME280;11554;51.106;3.684;2023-01-24T15:00:02;103767.65000000001;;;1.59;100.0
22775;BME280;11554;51.106;3.684;2023-01-24T15:05:00;103765.67;;;1.62;100.0
22775;BME280;11554;51.106;3.684;2023-01-24T15:10:00;103771.17000000001;;;1.62;100.0
22775;BME280;11554;51.106;3.684;2023-01-24T15:15:01;103769.29000000001;;;1.63;100.0
22775;BME280;11554;51.106;3.684;2023-01-24T15:20:05;103771.03;;;1.57;100.0
22775;BME280;11554;51.106;3.684;2023-01-24T15:25:00;103775.17;;;1.52;100.0
22775;BME280;11554;51.106;3.684;2023-01-24T15:40:00;103782.97;;;1.36;100.0
22775;BME280;11554;51.106;3.684;2023-01-24T15:45:00;103784.20000000001;;;1.28;100.0
22775;BME280;11554;51.106;3.684;2023-01-24T15:50:00;103783.84000000001;;;1.25;100.0
22775;BME280;11554;51.106;3.684;2023-01-24T15:55:00;103788.06999999999;;;1.22;100.0
22775;BME280;11554;51.106;3.684;2023-01-24T16:00:02;103783.78;;;1.16;100.0
22775;BME280;11554;51.106;3.684;2023-01-24T16:05:00;103784.13;;;1.12;100.0
22775;BME280;11554;51.106;3.684;2023-01-24T16:10:00;103782.28;;;1.15;100.0
22775;BME280;11554;51.106;3.684;2023-01-24T16:15:00;103783.39000000001;;;1.14;100.0
22775;BME280;11554;51.106;3.684;2023-01-24T16:20:00;103784.02;;;1.12;100.0
22775;BME280;11554;51.106;3.684;2023-01-24T16:25:00;103792.59;;;1.10;100.0
22775;BME280;11554;51.106;3.684;2023-01-24T16:30:00;103795.31999999999;;;1.08;100.0
22775;BME280;11554;51.106;3.684;2023-01-24T16:35:00;103800.0;;;1.04;100.0
22775;BME280;11554;51.106;3.684;2023-01-24T16:40:00;103795.39;;;0.97;100.0
22775;BME280;11554;51.106;3.684;2023-01-24T16:45:00;103793.71;;;0.96;100.0
22775;BME280;11554;51.106;3.684;2023-01-24T16:50:00;103789.92000000001;;;0.92;100.0
22775;BME280;11554;51.106;3.684;2023-01-24T16:55:00;103791.60999999999;;;0.89;100.0
22775;BME280;11554;51.106;3.684;2023-01-24T17:00:00;103781.93000000001;;;0.87;100.0
22775;BME280;11554;51.106;3.684;2023-01-24T17:05:00;103787.98999999999;;;0.86;100.0
22775;BME280;11554;51.106;3.684;2023-01-24T17:10:00;103787.65000000001;;;0.82;100.0
22775;BME280;11554;51.106;3.684;2023-01-24T17:15:00;103794.31999999999;;;0.81;100.0
22775;BME280;11554;51.106;3.684;2023-01-24T17:20:00;103799.54000000001;;;0.83;100.0
22775;BME280;11554;51.106;3.684;2023-01-24T17:25:00;103797.33000000002;;;0.81;100.0
22775;BME280;11554;51.106;3.684;2023-01-24T17:30:00;103803.98;;;0.82;100.0
22775;BME280;11554;51.106;3.684;2023-01-24T17:35:00;103808.99999999999;;;0.79;100.0
22775;BME280;11554;51.106;3.684;2023-01-24T17:40:00;103812.74;;;0.79;100.0
22775;BME280;11554;51.106;3.684;2023-01-24T17:45:00;103815.51999999999;;;0.77;100.0
22775;BME280;11554;51.106;3.684;2023-01-24T17:50:00;103813.95999999999;;;0.76;100.0
22775;BME280;11554;51.106;3.684;2023-01-24T17:55:00;103817.09000000001;;;0.74;100.0
22775;BME280;11554;51.106;3.684;2023-01-24T18:00:00;103817.65000000001;;;0.75;100.0
22775;BME280;11554;51.106;3.684;2023-01-24T18:05:00;103816.22;;;0.72;100.0
22775;BME280;11554;51.106;3.684;2023-01-24T18:10:00;103811.95;;;0.68;100.0
22775;BME280;11554;51.106;3.684;2023-01-24T18:15:00;103817.87;;;0.71;100.0
22775;BME280;11554;51.106;3.684;2023-01-24T18:20:00;103816.79999999999;;;0.70;100.0
22775;BME280;11554;51.106;3.684;2023-01-24T18:25:00;103817.59;;;0.69;100.0
22775;BME280;11554;51.106;3.684;2023-01-24T18:30:00;103812.43999999999;;;0.69;100.0
22775;BME280;11554;51.106;3.684;2023-01-24T18:35:00;103811.87;;;0.71;100.0
22775;BME280;11554;51.106;3.684;2023-01-24T18:40:00;103811.67;;;0.71;100.0
22775;BME280;11554;51.106;3.684;2023-01-24T18:45:00;103809.47000000002;;;0.67;100.0
22775;BME280;11554;51.106;3.684;2023-01-24T18:50:00;103810.07999999999;;;0.64;100.0
22775;BME280;11554;51.106;3.684;2023-01-24T18:55:00;103816.52999999998;;;0.60;100.0
22775;BME280;11554;51.106;3.684;2023-01-24T19:00:00;103817.64;;;0.58;100.0
22775;BME280;11554;51.106;3.684;2023-01-24T19:05:00;103817.81000000001;;;0.55;100.0
22775;BME280;11554;51.106;3.684;2023-01-24T19:10:00;103820.20999999999;;;0.54;100.0
22775;BME280;11554;51.106;3.684;2023-01-24T19:15:00;103826.48;;;0.53;100.0
22775;BME280;11554;51.106;3.684;2023-01-24T19:20:00;103821.46;;;0.54;100.0
22775;BME280;11554;51.106;3.684;2023-01-24T19:25:00;103815.91;;;0.53;100.0
22775;BME280;11554;51.106;3.684;2023-01-24T19:30:00;103808.56000000001;;;0.52;100.0
22775;BME280;11554;51.106;3.684;2023-01-24T19:35:00;103808.24;;;0.51;100.0
22775;BME280;11554;51.106;3.684;2023-01-24T19:40:00;103810.11000000002;;;0.50;100.0
22775;BME280;11554;51.106;3.684;2023-01-24T19:45:00;103814.98999999999;;;0.51;100.0
22775;BME280;11554;51.106;3.684;2023-01-24T19:50:00;103815.73000000001;;;0.50;100.0
22775;BME280;11554;51.106;3.684;2023-01-24T19:55:00;103820.17000000001;;;0.48;100.0
22775;BME280;11554;51.106;3.684;2023-01-24T20:00:00;103822.64;;;0.49;100.0
22775;BME280;11554;51.106;3.684;2023-01-24T20:05:00;103820.8;;;0.49;100.0
22775;BME280;11554;51.106;3.684;2023-01-24T20:10:00;103820.20999999999;;;0.49;100.0
22775;BME280;11554;51.106;3.684;2023-01-24T20:15:00;103821.37;;;0.47;100.0
22775;BME280;11554;51.106;3.684;2023-01-24T20:20:00;103820.39;;;0.45;100.0
22775;BME280;11554;51.106;3.684;2023-01-24T20:25:00;103823.31999999999;;;0.43;100.0
22775;BME280;11554;51.106;3.684;2023-01-24T20:30:00;103826.56999999999;;;0.43;100.0
22775;BME280;11554;51.106;3.684;2023-01-24T20:35:00;103832.18999999999;;;0.43;100.0
22775;BME280;11554;51.106;3.684;2023-01-24T20:40:00;103831.37;;;0.40;100.0
22775;BME280;11554;51.106;3.684;2023-01-24T20:45:00;103833.18;;;0.34;100.0
22775;BME280;11554;51.106;3.684;2023-01-24T20:50:00;103832.70999999999;;;0.31;100.0
22775;BME280;11554;51.106;3.684;2023-01-24T20:55:00;103832.02000000002;;;0.30;100.0
22775;BME280;11554;51.106;3.684;2023-01-24T21:00:00;103830.46999999999;;;0.32;100.0
22775;BME280;11554;51.106;3.684;2023-01-24T21:05:00;103832.9;;;0.34;100.0
22775;BME280;11554;51.106;3.684;2023-01-24T21:10:00;103827.66999999998;;;0.35;100.0
22775;BME280;11554;51.106;3.684;2023-01-24T21:15:00;103828.04000000001;;;0.35;100.0
22775;BME280;11554;51.106;3.684;2023-01-24T21:20:00;103825.66999999998;;;0.34;100.0
22775;BME280;11554;51.106;3.684;2023-01-24T21:25:00;103816.95999999999;;;0.35;100.0
22775;BME280;11554;51.106;3.684;2023-01-24T21:30:00;103824.45999999999;;;0.32;100.0
22775;BME280;11554;51.106;3.684;2023-01-24T21:35:00;103821.57999999999;;;0.33;100.0
22775;BME280;11554;51.106;3.684;2023-01-24T21:40:00;103821.26000000001;;;0.31;100.0
22775;BME280;11554;51.106;3.684;2023-01-24T21:45:00;103814.25;;;0.29;100.0
22775;BME280;11554;51.106;3.684;2023-01-24T21:50:00;103816.66;;;0.29;100.0
22775;BME280;11554;51.106;3.684;2023-01-24T21:55:00;103812.12000000001;;;0.29;100.0
22775;BME280;11554;51.106;3.684;2023-01-24T22:00:01;103813.57;;;0.27;100.0
22775;BME280;11554;51.106;3.684;2023-01-24T22:05:00;103813.06;;;0.23;100.0
22775;BME280;11554;51.106;3.684;2023-01-24T22:10:00;103805.42;;;0.21;100.0
22775;BME280;11554;51.106;3.684;2023-01-24T22:15:00;103805.29;;;0.17;100.0
22775;BME280;11554;51.106;3.684;2023-01-24T22:20:00;103799.31999999999;;;0.16;100.0
22775;BME280;11554;51.106;3.684;2023-01-24T22:25:04;103799.21999999999;;;0.17;100.0
22775;BME280;11554;51.106;3.684;2023-01-24T22:30:00;103791.27;;;0.15;100.0
22775;BME280;11554;51.106;3.684;2023-01-24T22:35:00;103792.18000000001;;;0.15;100.0
22775;BME280;11554;51.106;3.684;2023-01-24T22:40:00;103788.04000000001;;;0.13;100.0
22775;BME280;11554;51.106;3.684;2023-01-24T22:45:00;103790.15999999999;;;0.15;100.0
22775;BME280;11554;51.106;3.684;2023-01-24T22:50:00;103790.24999999999;;;0.14;100.0
22775;BME280;11554;51.106;3.684;2023-01-24T22:55:00;103784.95;;;0.16;100.0
22775;BME280;11554;51.106;3.684;2023-01-24T23:00:00;103780.77;;;0.16;100.0
22775;BME280;11554;51.106;3.684;2023-01-24T23:05:00;103777.81999999999;;;0.15;100.0
22775;BME280;11554;51.106;3.684;2023-01-24T23:10:00;103778.97;;;0.16;100.0
22775;BME280;11554;51.106;3.684;2023-01-24T23:15:00;103776.48999999999;;;0.15;100.0
22775;BME280;11554;51.106;3.684;2023-01-24T23:20:00;103770.77999999998;;;0.17;100.0
22775;BME280;11554;51.106;3.684;2023-01-24T23:25:01;103768.12;;;0.14;100.0
22775;BME280;11554;51.106;3.684;2023-01-24T23:35:00;103756.54;;;0.10;100.0
22775;BME280;11554;51.106;3.684;2023-01-24T23:40:00;103748.28;;;0.12;100.0
22775;BME280;11554;51.106;3.684;2023-01-24T23:45:00;103745.36;;;0.15;100.0
22775;BME280;11554;51.106;3.684;2023-01-24T23:50:00;103734.16;;;0.15;100.0
22775;BME280;11554;51.106;3.684;2023-01-24T23:55:00;103731.64;;;0.15;100.0
